createdAt,value
2023-11-18T00:02:19.179Z,100036.72
2023-11-18T00:05:21.733Z,100030.81
2023-11-18T00:08:25.597Z,100033.75
2023-11-18T00:11:45.923Z,100029.97
2023-11-18T00:14:48.715Z,100033.44
2023-11-18T00:17:50.466Z,100022.97
2023-11-18T00:20:52.686Z,100015.22
2023-11-18T00:23:57.174Z,100050.63
2023-11-18T00:30:14.756Z,100045.03
2023-11-18T00:33:16.602Z,100041.78
2023-11-18T00:36:18.233Z,100033.78
2023-11-18T00:39:23.268Z,100020.13
2023-11-18T00:42:28.543Z,100028.66
2023-11-18T00:45:30.269Z,100033.78
2023-11-18T00:48:35.476Z,100029.47
2023-11-18T00:51:48.671Z,100013.38
2023-11-18T00:54:50.264Z,100015.53
2023-11-18T00:57:51.868Z,100015.28
2023-11-18T01:00:57.536Z,100008.81
2023-11-18T01:04:02.199Z,100002.38
2023-11-18T01:07:06.720Z,100000.50
2023-11-18T01:10:11.099Z,100013.91
2023-11-18T01:13:12.799Z,100018.97
2023-11-18T01:16:18.124Z,100020.34
2023-11-18T01:19:20.139Z,100028.41
2023-11-18T01:22:22.650Z,100025.75
2023-11-18T01:25:24.304Z,100023.28
2023-11-18T01:28:46.160Z,100034.75
2023-11-18T01:31:52.426Z,100021.91
2023-11-18T01:35:04.465Z,100022.50
2023-11-18T01:38:06.274Z,100019.00
2023-11-18T01:41:08.770Z,99998.66
2023-11-18T01:44:10.519Z,100001.88
2023-11-18T01:47:13.943Z,100006.44
2023-11-18T01:50:18.523Z,99992.53
2023-11-18T01:53:21.664Z,100000.03
2023-11-18T01:56:32.308Z,100012.38
2023-11-18T01:59:37.290Z,100018.28
2023-11-18T02:02:42.760Z,100022.06
2023-11-18T02:05:52.740Z,100018.31
2023-11-18T02:09:02.440Z,100016.44
2023-11-18T02:15:58.175Z,100016.72
2023-11-18T02:19:01.149Z,100022.09
2023-11-18T02:22:04.112Z,100021.56
2023-11-18T02:25:11.712Z,100029.34
2023-11-18T02:28:22.489Z,100015.66
2023-11-18T02:31:34.931Z,100034.41
2023-11-18T02:34:43.696Z,100029.88
2023-11-18T02:37:49.606Z,100033.38
2023-11-18T02:40:54.348Z,100011.94
2023-11-18T02:43:59.178Z,100025.09
2023-11-18T02:47:01.159Z,100012.25
2023-11-18T02:50:14.766Z,100022.41
2023-11-18T02:53:18.725Z,100016.78
2023-11-18T02:56:23.505Z,100018.94
2023-11-18T02:59:25.655Z,100007.97
2023-11-18T03:02:40.562Z,99999.94
2023-11-18T03:05:42.342Z,100011.69
2023-11-18T03:08:50.007Z,100005.53
2023-11-18T03:12:00.219Z,99997.78
2023-11-18T03:15:14.367Z,99984.94
2023-11-18T03:21:36.730Z,100000.19
2023-11-18T03:24:38.624Z,100011.72
2023-11-18T03:27:44.095Z,100007.13
2023-11-18T03:30:45.732Z,99995.38
2023-11-18T03:33:48.384Z,100024.28
2023-11-18T03:36:52.462Z,100029.66
2023-11-18T03:40:00.147Z,100034.47
2023-11-18T03:43:04.234Z,100029.13
2023-11-18T03:46:06.128Z,100025.63
2023-11-18T03:52:23.582Z,100008.50
2023-11-18T03:55:27.095Z,100005.00
2023-11-18T04:02:19.788Z,100004.47
2023-11-18T04:08:47.059Z,100026.44
2023-11-18T04:11:52.170Z,100031.81
2023-11-18T04:18:20.380Z,100034.22
2023-11-18T04:21:22.009Z,100033.16
2023-11-18T04:24:26.504Z,100021.88
2023-11-18T04:27:28.700Z,100038.75
2023-11-18T04:30:30.279Z,100038.75
2023-11-18T04:33:33.343Z,100023.50
2023-11-18T04:36:47.265Z,100016.53
2023-11-18T04:39:48.906Z,100002.09
2023-11-18T04:42:50.525Z,99998.59
2023-11-18T04:45:53.906Z,99987.59
2023-11-18T04:49:07.799Z,99994.56
2023-11-18T04:52:09.467Z,99984.91
2023-11-18T04:55:16.651Z,99986.56
2023-11-18T04:58:18.416Z,99980.09
2023-11-18T05:01:28.859Z,99975.03
2023-11-18T05:04:33.327Z,99991.63
2023-11-18T05:07:39.585Z,99981.69
2023-11-18T05:10:48.346Z,99968.84
2023-11-18T05:13:50.601Z,99992.41
2023-11-18T05:16:58.157Z,99987.06
2023-11-18T05:20:01.721Z,99989.47
2023-11-18T05:23:04.682Z,99980.38
2023-11-18T05:26:09.513Z,99993.78
2023-11-18T05:29:25.500Z,99980.88
2023-11-18T05:32:28.834Z,99977.16
2023-11-18T05:35:32.898Z,99969.13
2023-11-18T05:38:36.495Z,99969.66
2023-11-18T05:41:40.885Z,99966.97
2023-11-18T05:44:43.796Z,99980.63
2023-11-18T05:47:45.511Z,99958.91
2023-11-18T05:54:09.615Z,99962.13
2023-11-18T05:57:12.485Z,99960.25
2023-11-18T06:00:27.667Z,99959.72
2023-11-18T06:03:39.696Z,99960.81
2023-11-18T06:06:42.314Z,99968.81
2023-11-18T06:09:47.870Z,99965.63
2023-11-18T06:12:51.840Z,99967.75
2023-11-18T06:19:12.288Z,99978.97
2023-11-18T06:22:13.845Z,99956.25
2023-11-18T06:25:19.584Z,99971.44
2023-11-18T06:28:26.582Z,99975.47
2023-11-18T06:31:31.846Z,99978.69
2023-11-18T06:34:36.345Z,99987.00
2023-11-18T06:37:44.225Z,99981.31
2023-11-18T06:40:53.705Z,99974.09
2023-11-18T06:43:55.407Z,99972.22
2023-11-18T06:46:57.094Z,99963.66
2023-11-18T06:49:58.913Z,99974.88
2023-11-18T06:53:00.541Z,99972.75
2023-11-18T06:56:35.753Z,99977.56
2023-11-18T06:59:40.446Z,99961.50
2023-11-18T07:02:43.980Z,99960.44
2023-11-18T07:05:45.631Z,99977.00
2023-11-18T07:08:47.212Z,99960.88
2023-11-18T07:11:49.623Z,99986.09
2023-11-18T07:14:51.410Z,99997.59
2023-11-18T07:17:56.863Z,99991.44
2023-11-18T07:21:02.266Z,99982.56
2023-11-18T07:24:03.963Z,99981.72
2023-11-18T07:27:09.000Z,99989.44
2023-11-18T07:30:14.277Z,99976.38
2023-11-18T07:33:20.145Z,99992.13
2023-11-18T07:36:28.959Z,99983.03
2023-11-18T07:39:45.707Z,99993.44
2023-11-18T07:42:51.540Z,99968.53
2023-11-18T07:46:19.954Z,99960.22
2023-11-18T07:49:27.515Z,99959.72
2023-11-18T07:52:30.180Z,99978.44
2023-11-18T07:55:33.107Z,99969.06
2023-11-18T07:58:38.454Z,99983.75
2023-11-18T08:01:47.758Z,99985.34
2023-11-18T08:04:49.646Z,99975.16
2023-11-18T08:07:52.105Z,99989.88
2023-11-18T08:10:54.751Z,99986.84
2023-11-18T08:14:04.029Z,99970.19
2023-11-18T08:17:06.251Z,99961.09
2023-11-18T08:20:17.627Z,99948.22
2023-11-18T08:23:22.325Z,99968.75
2023-11-18T08:26:27.196Z,99961.50
2023-11-18T08:29:34.970Z,99930.41
2023-11-18T08:32:37.016Z,99938.94
2023-11-18T08:35:46.607Z,99946.06
2023-11-18T08:38:48.318Z,99950.88
2023-11-18T08:41:56.092Z,99954.31
2023-11-18T08:45:03.794Z,99954.03
2023-11-18T08:48:09.827Z,99947.56
2023-11-18T08:51:14.356Z,99927.91
2023-11-18T08:54:38.956Z,99940.19
2023-11-18T08:58:00.558Z,99922.59
2023-11-18T09:04:31.053Z,99894.78
2023-11-18T09:07:38.730Z,99907.88
2023-11-18T09:10:42.195Z,99917.50
2023-11-18T09:14:01.878Z,99915.84
2023-11-18T09:17:07.978Z,99921.94
2023-11-18T09:20:12.583Z,99939.63
2023-11-18T09:23:16.989Z,99942.47
2023-11-18T09:26:22.605Z,99947.28
2023-11-18T09:29:25.984Z,99943.78
2023-11-18T09:32:27.914Z,99927.44
2023-11-18T09:35:30.530Z,99937.06
2023-11-18T09:38:54.872Z,99932.53
2023-11-18T09:41:58.149Z,99938.66
2023-11-18T09:45:03.813Z,99930.88
2023-11-18T09:48:08.274Z,99943.78
2023-11-18T09:51:22.211Z,99952.38
2023-11-18T09:54:56.430Z,99956.63
2023-11-18T09:58:09.923Z,99949.91
2023-11-18T10:01:19.772Z,99953.34
2023-11-18T10:04:21.806Z,99966.72
2023-11-18T10:07:29.077Z,99953.28
2023-11-18T10:10:38.220Z,99958.94
2023-11-18T10:13:44.332Z,99958.63
2023-11-18T10:16:56.831Z,99956.13
2023-11-18T10:20:14.089Z,99960.06
2023-11-18T10:23:20.960Z,99973.28
2023-11-18T10:26:26.237Z,99955.25
2023-11-18T10:29:39.417Z,99955.78
2023-11-18T10:32:42.837Z,99962.47
2023-11-18T10:35:59.423Z,99950.59
2023-11-18T10:39:06.509Z,99952.66
2023-11-18T10:42:34.237Z,99955.06
2023-11-18T10:45:42.277Z,99955.66
2023-11-18T10:48:48.209Z,99949.47
2023-11-18T10:51:52.084Z,99957.19
2023-11-18T10:54:59.632Z,99947.06
2023-11-18T10:58:04.858Z,99951.50
2023-11-18T11:04:26.415Z,99948.00
2023-11-18T11:07:31.006Z,99940.00
2023-11-18T11:10:42.014Z,99940.59
2023-11-18T11:13:48.146Z,99941.09
2023-11-18T11:16:55.438Z,99918.59
2023-11-18T11:20:33.053Z,99922.91
2023-11-18T11:24:13.432Z,99919.13
2023-11-18T11:31:23.822Z,99892.50
2023-11-18T11:34:32.459Z,99890.69
2023-11-18T11:37:35.852Z,99891.50
2023-11-18T11:40:39.075Z,99862.22
2023-11-18T11:43:41.821Z,99867.47
2023-11-18T11:46:44.389Z,99851.56
2023-11-18T11:53:18.389Z,99846.53
2023-11-18T11:56:25.472Z,99847.41
2023-11-18T11:59:47.545Z,99836.94
2023-11-18T12:03:03.346Z,99842.75
2023-11-18T12:06:14.272Z,99848.16
2023-11-18T12:12:40.728Z,99835.31
2023-11-18T12:15:49.142Z,99834.25
2023-11-18T12:19:31.945Z,99835.81
2023-11-18T12:23:15.920Z,99817.22
2023-11-18T12:26:54.630Z,99796.13
2023-11-18T12:29:59.763Z,99805.13
2023-11-18T12:33:19.226Z,99795.44
2023-11-18T12:36:40.076Z,99806.16
2023-11-18T12:40:05.595Z,99821.19
2023-11-18T12:43:08.913Z,99812.53
2023-11-18T12:46:38.329Z,99812.84
2023-11-18T12:49:42.774Z,99801.25
2023-11-18T12:52:45.893Z,99802.94
2023-11-18T12:55:49.453Z,99803.22
2023-11-18T12:58:52.165Z,99794.88
2023-11-18T13:02:03.490Z,99805.84
2023-11-18T13:05:11.402Z,99795.28
2023-11-18T13:08:16.679Z,99778.66
2023-11-18T13:11:18.486Z,99762.97
2023-11-18T13:14:20.345Z,99756.31
2023-11-18T13:17:23.201Z,99747.94
2023-11-18T13:20:27.223Z,99749.94
2023-11-18T13:23:29.119Z,99739.75
2023-11-18T13:26:32.383Z,99734.75
2023-11-18T13:29:36.020Z,99740.03
2023-11-18T13:32:37.771Z,99720.19
2023-11-18T13:35:39.623Z,99710.13
2023-11-18T13:38:45.276Z,99706.94
2023-11-18T13:41:51.508Z,99692.50
2023-11-18T13:44:54.238Z,99693.38
2023-11-18T13:47:58.530Z,99681.69
2023-11-18T13:51:00.389Z,99681.75
2023-11-18T13:54:02.533Z,99683.63
2023-11-18T13:57:05.046Z,99673.78
2023-11-18T14:00:16.014Z,99667.75
2023-11-18T14:03:18.198Z,99679.94
2023-11-18T14:06:23.998Z,99650.00
2023-11-18T14:09:26.346Z,99660.56
2023-11-18T14:12:28.868Z,99650.22
2023-11-18T14:15:36.313Z,99637.53
2023-11-18T14:18:38.065Z,99618.31
2023-11-18T14:21:42.002Z,99614.31
2023-11-18T14:24:43.646Z,99606.66
2023-11-18T14:27:45.354Z,99592.59
2023-11-18T14:30:47.739Z,99583.41
2023-11-18T14:33:49.562Z,99591.69
2023-11-18T14:36:51.244Z,99605.34
2023-11-18T14:39:55.643Z,99606.16
2023-11-18T14:42:57.378Z,99613.13
2023-11-18T14:45:59.183Z,99616.91
2023-11-18T14:49:00.841Z,99622.22
2023-11-18T14:52:02.770Z,99622.31
2023-11-18T14:55:05.493Z,99616.72
2023-11-18T14:58:08.122Z,99633.88
2023-11-18T15:01:11.960Z,99635.38
2023-11-18T15:04:13.707Z,99645.03
2023-11-18T15:07:15.381Z,99645.44
2023-11-18T15:10:21.605Z,99649.53
2023-11-18T15:13:23.256Z,99652.22
2023-11-18T15:16:24.972Z,99670.97
2023-11-18T15:19:28.370Z,99652.94
2023-11-18T15:22:30.602Z,99639.16
2023-11-18T15:25:32.263Z,99631.28
2023-11-18T15:28:33.910Z,99641.94
2023-11-18T15:31:35.538Z,99635.56
2023-11-18T15:34:37.249Z,99631.28
2023-11-18T15:37:40.168Z,99622.91
2023-11-18T15:40:42.685Z,99616.13
2023-11-18T15:43:44.311Z,99615.00
2023-11-18T15:46:49.703Z,99606.53
2023-11-18T15:49:52.130Z,99608.44
2023-11-18T15:52:53.880Z,99607.75
2023-11-18T15:55:55.635Z,99608.75
2023-11-18T15:58:57.364Z,99606.53
2023-11-18T16:01:59.226Z,99618.63
2023-11-18T16:05:00.970Z,99600.16
2023-11-18T16:08:03.551Z,99594.69
2023-11-18T16:11:06.271Z,99601.56
2023-11-18T16:14:09.409Z,99586.19
2023-11-18T16:17:11.315Z,99581.63
2023-11-18T16:20:18.670Z,99575.72
2023-11-18T16:23:22.565Z,99578.16
2023-11-18T16:26:24.365Z,99567.47
2023-11-18T16:29:26.123Z,99574.06
2023-11-18T16:32:27.864Z,99531.16
2023-11-18T16:35:30.444Z,99543.09
2023-11-18T16:38:32.505Z,99533.97
2023-11-18T16:41:43.458Z,99533.94
2023-11-18T16:44:49.346Z,99526.03
2023-11-18T16:47:52.305Z,99509.38
2023-11-18T16:50:55.017Z,99508.53
2023-11-18T16:53:56.706Z,99491.94
2023-11-18T16:56:58.439Z,99487.53
2023-11-18T17:00:00.117Z,99497.56
2023-11-18T17:03:01.970Z,99492.47
2023-11-18T17:06:04.813Z,99477.84
2023-11-18T17:09:06.872Z,99456.19
2023-11-18T17:12:08.948Z,99427.22
2023-11-18T17:15:14.635Z,99422.81
2023-11-18T17:18:16.478Z,99396.38
2023-11-18T17:21:18.143Z,99385.25
2023-11-18T17:24:19.784Z,99404.28
2023-11-18T17:27:21.414Z,99405.75
2023-11-18T17:30:23.201Z,99418.00
2023-11-18T17:33:25.401Z,99413.88
2023-11-18T17:36:28.878Z,99416.25
2023-11-18T17:39:30.496Z,99411.78
2023-11-18T17:42:32.623Z,99391.56
2023-11-18T17:45:34.371Z,99397.47
2023-11-18T17:48:36.540Z,99397.97
2023-11-18T17:51:38.218Z,99404.94
2023-11-18T17:54:41.138Z,99417.41
2023-11-18T17:57:51.390Z,99409.28
2023-11-18T18:00:54.163Z,99441.16
2023-11-18T18:03:55.937Z,99442.19
2023-11-18T18:06:57.594Z,99433.16
2023-11-18T18:09:59.450Z,99425.22
2023-11-18T18:13:01.227Z,99420.66
2023-11-18T18:16:02.917Z,99425.88
2023-11-18T18:19:05.028Z,99419.06
2023-11-18T18:22:06.651Z,99415.78
2023-11-18T18:25:10.109Z,99419.59
2023-11-18T18:28:11.923Z,99442.63
2023-11-18T18:31:13.573Z,99424.88
2023-11-18T18:34:15.229Z,99429.47
2023-11-18T18:37:16.844Z,99413.56
2023-11-18T18:40:23.843Z,99422.63
2023-11-18T18:43:25.623Z,99416.94
2023-11-18T18:46:28.264Z,99389.13
2023-11-18T18:49:30.132Z,99406.00
2023-11-18T18:52:31.782Z,99407.09
2023-11-18T18:55:33.440Z,99387.25
2023-11-18T18:58:35.139Z,99364.84
2023-11-18T19:01:36.862Z,99373.00
2023-11-18T19:04:38.564Z,99358.38
2023-11-18T19:07:40.201Z,99377.72
2023-11-18T19:10:42.023Z,99391.03
2023-11-18T19:13:43.735Z,99391.97
2023-11-18T19:16:45.397Z,99377.53
2023-11-18T19:19:47.223Z,99375.75
2023-11-18T19:22:48.852Z,99381.94
2023-11-18T19:25:50.521Z,99367.66
2023-11-18T19:28:52.190Z,99348.09
2023-11-18T19:31:53.885Z,99350.97
2023-11-18T19:34:55.528Z,99347.78
2023-11-18T19:37:57.289Z,99349.41
2023-11-18T19:40:59.141Z,99340.97
2023-11-18T19:44:01.495Z,99337.00
2023-11-18T19:47:03.340Z,99339.06
2023-11-18T19:50:05.764Z,99325.88
2023-11-18T19:53:07.501Z,99342.22
2023-11-18T19:56:10.651Z,99346.97
2023-11-18T19:59:13.330Z,99338.09
2023-11-18T20:02:15.061Z,99323.47
2023-11-18T20:05:17.085Z,99312.66
2023-11-18T20:08:19.340Z,99313.56
2023-11-18T20:11:21.093Z,99290.78
2023-11-18T20:14:25.704Z,99278.22
2023-11-18T20:17:27.409Z,99279.16
2023-11-18T20:20:29.082Z,99288.06
2023-11-18T20:23:30.870Z,99275.16
2023-11-18T20:26:32.589Z,99261.81
2023-11-18T20:29:34.819Z,99266.72
2023-11-18T20:32:37.358Z,99253.25
2023-11-18T20:35:39.258Z,99260.56
2023-11-18T20:38:41.277Z,99249.28
2023-11-18T20:41:43.011Z,99223.34
2023-11-18T20:44:44.715Z,99243.56
2023-11-18T20:47:48.032Z,99253.56
2023-11-18T20:50:52.625Z,99258.13
2023-11-18T20:53:54.617Z,99260.78
2023-11-18T20:56:56.416Z,99252.06
2023-11-18T20:59:58.204Z,99257.81
2023-11-18T21:03:00.038Z,99264.38
2023-11-18T21:06:01.983Z,99280.38
2023-11-18T21:09:03.835Z,99274.16
2023-11-18T21:12:17.765Z,99288.44
2023-11-18T21:15:21.075Z,99277.53
2023-11-18T21:18:22.766Z,99298.16
2023-11-18T21:21:24.483Z,99303.09
2023-11-18T21:24:26.146Z,99287.56
2023-11-18T21:27:27.786Z,99291.22
2023-11-18T21:30:29.437Z,99304.75
2023-11-18T21:33:31.067Z,99300.31
2023-11-18T21:36:32.730Z,99305.75
2023-11-18T21:39:34.346Z,99292.06
2023-11-18T21:42:38.665Z,99299.22
2023-11-18T21:45:40.311Z,99294.00
2023-11-18T21:48:42.095Z,99291.28
2023-11-18T21:51:43.821Z,99282.09
2023-11-18T21:54:45.921Z,99286.66
2023-11-18T21:57:47.744Z,99285.91
2023-11-18T22:00:49.709Z,99287.19
2023-11-18T22:03:51.568Z,99279.56
2023-11-18T22:06:55.259Z,99274.19
2023-11-18T22:09:57.159Z,99263.25
2023-11-18T22:12:58.788Z,99254.84
2023-11-18T22:16:01.764Z,99262.00
2023-11-18T22:19:05.526Z,99235.16
2023-11-18T22:22:07.106Z,99248.69
2023-11-18T22:25:09.778Z,99236.78
2023-11-18T22:28:14.394Z,99237.09
2023-11-18T22:31:16.129Z,99229.63
2023-11-18T22:34:17.834Z,99221.72
2023-11-18T22:37:19.450Z,99182.03
2023-11-18T22:40:22.766Z,99178.22
2023-11-18T22:43:24.645Z,99191.53
2023-11-18T22:46:26.289Z,99200.44
2023-11-18T22:49:29.008Z,99201.53
2023-11-18T22:52:30.662Z,99186.91
2023-11-18T22:55:32.664Z,99166.47
2023-11-18T22:58:34.309Z,99179.31
2023-11-18T23:01:40.902Z,99170.38
2023-11-18T23:04:42.600Z,99180.88
2023-11-18T23:07:45.901Z,99179.28
2023-11-18T23:10:47.895Z,99181.94
2023-11-18T23:13:49.696Z,99182.06
2023-11-18T23:16:53.406Z,99185.09
2023-11-18T23:19:55.760Z,99176.25
2023-11-18T23:22:57.624Z,99193.06
2023-11-18T23:26:01.245Z,99182.91
2023-11-18T23:29:03.831Z,99175.78
2023-11-18T23:32:06.889Z,99177.38
2023-11-18T23:35:10.453Z,99159.13
2023-11-18T23:38:12.117Z,99164.66
2023-11-18T23:41:15.140Z,99154.06
2023-11-18T23:44:19.082Z,99160.69
2023-11-18T23:47:21.112Z,99162.59
2023-11-18T23:50:26.542Z,99169.06
2023-11-18T23:53:28.413Z,99160.66
2023-11-18T23:56:32.359Z,99154.44
2023-11-18T23:59:34.104Z,99160.63
